Time;durP1;ratioP1;P1;durP2;ratioP2;P2;SDS_P1;SDS_P2;PMS_P1;PMS_P2;Temp;Humidity;BMP_temperature;BMP_pressure;BME280_temperature;BME280_humidity;BME280_pressure;Samples;Min_cycle;Max_cycle;Signal;HPM_P1;HPM_P2
2022/06/28 00:02:12;;;;;;;5.47;1.20;;;13.40;99.90;;;;;;5018690;28;20454;-84
2022/06/28 00:04:43;;;;;;;5.55;0.85;;;13.50;99.90;;;;;;5024532;28;20292;-85
2022/06/28 00:07:14;;;;;;;3.55;1.10;;;13.70;99.90;;;;;;5017700;28;20193;-84
2022/06/28 00:09:45;;;;;;;5.07;0.95;;;13.80;99.90;;;;;;5018303;28;20221;-84
2022/06/28 00:12:16;;;;;;;4.13;1.08;;;14.00;99.90;;;;;;5020870;28;20243;-83
2022/06/28 00:17:35;;;;;;;2.20;0.65;;;14.20;99.90;;;;;;5024041;28;20212;-82
2022/06/28 00:20:07;;;;;;;2.63;0.68;;;14.30;99.90;;;;;;5016775;28;20229;-82
2022/06/28 00:22:38;;;;;;;5.00;0.98;;;14.40;99.90;;;;;;5015827;28;20201;-82
2022/06/28 00:25:10;;;;;;;3.38;0.70;;;14.40;99.90;;;;;;5016861;28;20201;-81
2022/06/28 00:27:41;;;;;;;5.22;1.08;;;14.30;99.90;;;;;;5018376;28;20205;-83
2022/06/28 00:30:13;;;;;;;4.35;0.98;;;14.40;99.90;;;;;;5013775;28;20229;-85
2022/06/28 00:32:45;;;;;;;5.40;0.90;;;14.50;99.90;;;;;;5014679;28;20225;-83
2022/06/28 00:35:16;;;;;;;5.28;1.27;;;14.50;99.90;;;;;;5011667;28;20212;-84
2022/06/28 00:37:47;;;;;;;5.68;0.93;;;14.60;99.90;;;;;;5013794;28;20237;-82
2022/06/28 00:40:23;;;;;;;4.13;0.90;;;14.80;99.90;;;;;;5014131;28;20209;-84
2022/06/28 00:42:55;;;;;;;4.57;0.73;;;14.80;99.90;;;;;;5015977;28;20205;-83
2022/06/28 00:45:26;;;;;;;2.22;0.70;;;14.90;99.90;;;;;;5013309;28;20224;-83
2022/06/28 00:47:59;;;;;;;8.23;0.80;;;15.00;99.90;;;;;;5029640;28;20284;-84
2022/06/28 00:50:31;;;;;;;2.85;0.70;;;15.00;99.90;;;;;;5021287;28;20217;-84
2022/06/28 00:53:07;;;;;;;1.90;0.55;;;15.00;99.90;;;;;;5027197;28;20236;-82
2022/06/28 00:55:38;;;;;;;4.32;0.60;;;15.00;99.90;;;;;;5021565;28;20197;-83
2022/06/28 00:58:09;;;;;;;3.03;0.70;;;14.90;99.90;;;;;;5016992;28;20672;-84
2022/06/28 01:00:43;;;;;;;2.67;0.70;;;15.00;99.90;;;;;;5025198;28;20225;-84
2022/06/28 01:03:18;;;;;;;3.30;0.90;;;15.00;99.90;;;;;;5029293;28;20197;-89
2022/06/28 01:05:51;;;;;;;3.80;0.68;;;15.10;99.90;;;;;;5022112;28;20206;-86
2022/06/28 01:08:28;;;;;;;5.05;0.93;;;15.20;99.90;;;;;;5030843;28;20206;-86
2022/06/28 01:11:18;;;;;;;3.17;0.90;;;15.20;99.90;;;;;;5031819;28;20197;-86
2022/06/28 01:13:50;;;;;;;4.60;0.80;;;15.30;99.90;;;;;;5023971;28;20249;-82
2022/06/28 01:16:22;;;;;;;4.47;0.90;;;15.30;99.90;;;;;;5021004;28;20191;-85
2022/06/28 01:18:54;;;;;;;3.55;0.80;;;15.30;99.90;;;;;;5031205;28;20327;-83
2022/06/28 01:21:30;;;;;;;5.65;0.98;;;15.40;99.90;;;;;;5025946;28;20198;-84
2022/06/28 01:24:02;;;;;;;7.85;1.13;;;15.40;99.90;;;;;;5024932;28;20216;-83
2022/06/28 01:26:34;;;;;;;2.60;0.80;;;15.40;99.90;;;;;;5028244;28;20193;-84
2022/06/28 01:29:06;;;;;;;3.88;0.80;;;15.50;99.90;;;;;;5021612;28;20213;-84
2022/06/28 01:31:36;;;;;;;5.07;0.73;;;15.60;99.90;;;;;;5028124;28;20388;-83
2022/06/28 01:34:07;;;;;;;6.25;1.00;;;15.60;99.90;;;;;;5031989;28;20647;-84
2022/06/28 01:36:39;;;;;;;3.97;0.90;;;15.70;99.90;;;;;;5029899;28;20225;-84
2022/06/28 01:39:13;;;;;;;2.30;0.85;;;15.80;99.90;;;;;;5025989;28;20655;-85
2022/06/28 01:41:44;;;;;;;3.75;1.08;;;15.80;99.90;;;;;;5030279;28;20194;-82
2022/06/28 01:44:15;;;;;;;5.28;0.82;;;15.80;99.90;;;;;;5026828;28;20548;-83
2022/06/28 01:46:46;;;;;;;5.57;0.90;;;15.90;99.90;;;;;;5023333;28;20231;-82
2022/06/28 01:49:16;;;;;;;2.53;0.80;;;15.90;99.90;;;;;;5026876;28;20213;-83
2022/06/28 01:51:48;;;;;;;4.10;0.80;;;15.90;99.90;;;;;;5034446;28;20217;-83
2022/06/28 01:54:21;;;;;;;7.22;0.82;;;16.00;99.90;;;;;;5028744;28;20303;-84
2022/06/28 01:56:51;;;;;;;6.03;0.95;;;16.00;99.90;;;;;;5027826;28;20189;-84
2022/06/28 01:59:25;;;;;;;2.45;0.90;;;15.90;99.90;;;;;;5028773;28;20202;-82
2022/06/28 02:01:56;;;;;;;2.97;0.90;;;15.90;99.90;;;;;;5031201;28;20197;-83
2022/06/28 02:04:28;;;;;;;5.40;0.88;;;16.00;99.90;;;;;;5031191;28;20513;-84
2022/06/28 02:07:00;;;;;;;5.22;1.08;;;16.00;99.90;;;;;;5026724;28;20253;-84
2022/06/28 02:09:32;;;;;;;5.65;1.00;;;16.00;99.90;;;;;;5024901;28;20316;-84
2022/06/28 02:12:03;;;;;;;4.38;1.10;;;15.90;99.90;;;;;;5030948;28;20618;-83
2022/06/28 02:14:33;;;;;;;4.53;1.20;;;15.90;99.90;;;;;;5027930;28;20560;-83
2022/06/28 02:17:05;;;;;;;4.22;0.80;;;15.90;99.90;;;;;;5028839;28;20209;-84
2022/06/28 02:19:36;;;;;;;2.28;1.00;;;15.90;99.90;;;;;;5025448;28;20209;-84
2022/06/28 02:22:07;;;;;;;3.38;0.80;;;15.90;99.90;;;;;;5026192;28;20197;-83
2022/06/28 02:24:40;;;;;;;6.10;1.20;;;15.90;99.90;;;;;;5030228;28;20197;-85
2022/06/28 02:27:10;;;;;;;4.40;1.20;;;15.90;99.90;;;;;;5016294;28;20194;-85
2022/06/28 02:29:41;;;;;;;6.38;1.08;;;15.70;99.90;;;;;;5036512;28;20363;-83
2022/06/28 02:32:12;;;;;;;4.68;1.02;;;15.80;99.90;;;;;;5034082;28;21397;-83
2022/06/28 02:40:24;;;;;;;2.25;0.95;;;15.60;99.90;;;;;;5022158;28;20196;-83
2022/06/28 02:42:56;;;;;;;4.57;0.90;;;15.70;99.90;;;;;;5027891;28;20193;-83
2022/06/28 02:45:31;;;;;;;5.03;1.23;;;15.60;99.90;;;;;;5027900;28;20189;-83
2022/06/28 02:48:02;;;;;;;4.53;0.70;;;15.60;99.90;;;;;;5028948;28;20212;-83
2022/06/28 02:50:32;;;;;;;6.00;1.42;;;15.70;99.90;;;;;;5029629;28;20687;-84
2022/06/28 02:53:03;;;;;;;4.55;1.10;;;15.70;99.90;;;;;;5028168;28;20197;-84
2022/06/28 02:55:36;;;;;;;3.47;0.85;;;15.60;99.90;;;;;;5021731;28;20220;-84
2022/06/28 02:58:07;;;;;;;4.38;1.00;;;15.60;99.90;;;;;;5022604;28;20685;-83
2022/06/28 03:00:37;;;;;;;6.70;1.52;;;15.60;99.90;;;;;;5023071;28;20197;-83
2022/06/28 03:03:08;;;;;;;5.40;0.73;;;15.60;99.90;;;;;;5020255;28;20280;-83
2022/06/28 03:05:39;;;;;;;2.55;0.82;;;15.60;99.90;;;;;;5027540;28;20197;-84
2022/06/28 03:08:10;;;;;;;3.28;0.70;;;15.50;99.90;;;;;;5023537;28;20595;-83
2022/06/28 03:10:43;;;;;;;4.20;0.60;;;15.60;99.90;;;;;;5015675;28;20237;-83
2022/06/28 03:13:14;;;;;;;3.47;0.60;;;15.60;99.90;;;;;;5028633;28;20263;-83
2022/06/28 03:15:44;;;;;;;3.70;1.08;;;15.70;99.90;;;;;;5023351;28;20545;-82
2022/06/28 03:18:15;;;;;;;4.93;0.88;;;15.70;99.90;;;;;;5027288;28;20193;-82
2022/06/28 03:20:46;;;;;;;3.15;0.90;;;15.60;99.90;;;;;;5029404;28;20204;-82
2022/06/28 03:23:17;;;;;;;5.22;0.85;;;15.60;99.90;;;;;;5024887;28;20205;-81
2022/06/28 03:25:49;;;;;;;3.08;0.60;;;15.60;99.90;;;;;;5032841;28;20220;-82
2022/06/28 03:28:20;;;;;;;1.65;0.70;;;15.50;99.90;;;;;;5022379;28;20193;-83
2022/06/28 03:30:51;;;;;;;2.08;0.70;;;15.60;99.90;;;;;;5027901;28;20232;-83
2022/06/28 03:33:21;;;;;;;2.75;0.73;;;15.60;99.90;;;;;;5026678;28;20834;-82
2022/06/28 03:35:52;;;;;;;2.03;0.68;;;15.60;99.90;;;;;;5025934;28;20240;-82
2022/06/28 03:38:23;;;;;;;2.28;0.63;;;15.60;99.90;;;;;;5027045;28;20197;-82
2022/06/28 03:40:55;;;;;;;2.42;0.55;;;15.70;99.90;;;;;;5029048;28;20197;-82
2022/06/28 03:43:26;;;;;;;1.45;0.40;;;15.70;99.90;;;;;;5030602;28;20573;-80
2022/06/28 03:45:57;;;;;;;4.63;0.73;;;15.70;99.90;;;;;;5027929;28;20304;-82
2022/06/28 03:48:28;;;;;;;2.85;0.43;;;15.70;99.90;;;;;;5028721;28;20549;-82
2022/06/28 03:50:58;;;;;;;1.98;0.60;;;15.70;99.90;;;;;;5023497;28;20232;-81
2022/06/28 03:53:29;;;;;;;4.50;0.80;;;15.80;99.90;;;;;;5024752;28;20205;-82
2022/06/28 03:56:02;;;;;;;4.22;0.70;;;15.80;99.90;;;;;;5026331;28;20209;-81
2022/06/28 03:58:33;;;;;;;4.78;0.73;;;15.90;99.90;;;;;;5023209;28;20190;-81
2022/06/28 04:01:04;;;;;;;4.63;0.90;;;15.90;99.90;;;;;;5033405;28;20208;-80
2022/06/28 04:03:36;;;;;;;2.13;0.68;;;16.00;99.90;;;;;;5029054;28;20201;-81
2022/06/28 04:06:06;;;;;;;3.58;0.95;;;15.90;99.90;;;;;;5030636;28;20200;-81
2022/06/28 04:08:37;;;;;;;5.88;0.98;;;15.90;99.90;;;;;;5028971;28;20212;-82
2022/06/28 04:11:16;;;;;;;6.30;0.93;;;15.90;99.90;;;;;;5031435;28;20228;-81
2022/06/28 04:13:48;;;;;;;2.03;0.80;;;15.90;99.90;;;;;;5029730;28;20211;-81
2022/06/28 04:16:20;;;;;;;5.32;0.90;;;16.00;99.90;;;;;;5032381;28;20188;-81
2022/06/28 04:18:53;;;;;;;2.38;0.90;;;16.10;99.90;;;;;;5030541;28;20207;-83
2022/06/28 04:21:25;;;;;;;1.88;0.60;;;16.10;99.90;;;;;;5024469;28;20201;-82
2022/06/28 04:23:57;;;;;;;3.72;0.70;;;16.10;99.90;;;;;;5028388;28;20308;-82
2022/06/28 04:26:29;;;;;;;3.05;0.70;;;16.10;99.90;;;;;;5024491;28;20201;-82
2022/06/28 04:29:00;;;;;;;3.40;0.80;;;16.00;99.90;;;;;;5024216;28;20194;-81
2022/06/28 04:31:31;;;;;;;3.38;0.75;;;16.00;99.90;;;;;;5031161;28;20225;-82
2022/06/28 04:34:02;;;;;;;6.53;1.30;;;16.00;99.90;;;;;;5029713;28;20854;-82
2022/06/28 04:36:33;;;;;;;3.72;0.80;;;16.00;99.90;;;;;;5027904;28;20221;-83
2022/06/28 04:39:04;;;;;;;3.08;0.55;;;15.90;99.90;;;;;;5027019;28;20189;-81
2022/06/28 04:41:37;;;;;;;5.85;0.90;;;15.90;99.90;;;;;;5027877;28;20229;-81
2022/06/28 04:44:08;;;;;;;6.03;0.85;;;15.90;99.90;;;;;;5023872;28;20225;-81
2022/06/28 04:46:39;;;;;;;1.98;0.70;;;15.90;99.90;;;;;;5028550;28;20193;-82
2022/06/28 04:49:12;;;;;;;2.53;0.68;;;15.80;99.90;;;;;;5029652;28;20197;-82
2022/06/28 04:51:42;;;;;;;2.75;0.93;;;15.90;99.90;;;;;;5027562;28;20221;-82
2022/06/28 04:54:13;;;;;;;3.88;0.82;;;15.90;99.90;;;;;;5029141;28;20198;-82
2022/06/28 04:56:46;;;;;;;4.47;0.68;;;15.80;99.90;;;;;;5030840;28;20561;-81
2022/06/28 04:59:16;;;;;;;4.45;0.90;;;15.80;99.90;;;;;;5029636;28;20197;-82
2022/06/28 05:01:47;;;;;;;1.73;0.70;;;15.80;99.90;;;;;;5025985;28;20214;-81
2022/06/28 05:04:18;;;;;;;6.13;1.17;;;15.80;99.90;;;;;;5031384;28;20200;-82
2022/06/28 05:06:48;;;;;;;5.07;1.05;;;15.80;99.90;;;;;;5024879;28;20201;-81
2022/06/28 05:09:19;;;;;;;5.40;0.82;;;15.70;99.90;;;;;;5029952;28;20276;-82
2022/06/28 05:11:55;;;;;;;2.42;0.52;;;15.70;99.90;;;;;;5016561;28;20279;-82
2022/06/28 05:14:26;;;;;;;8.02;0.70;;;15.60;99.90;;;;;;5018068;28;20200;-83
2022/06/28 05:16:57;;;;;;;1.20;0.40;;;15.50;99.90;;;;;;5020466;28;20197;-81
2022/06/28 05:19:30;;;;;;;2.05;0.50;;;15.50;99.90;;;;;;5017053;28;20202;-80
2022/06/28 05:22:00;;;;;;;2.22;0.57;;;15.50;99.90;;;;;;5015991;28;20944;-81
2022/06/28 05:24:31;;;;;;;2.72;0.60;;;15.50;99.90;;;;;;5010532;28;20665;-81
2022/06/28 05:27:04;;;;;;;6.05;0.60;;;15.60;99.90;;;;;;5013364;28;20208;-81
2022/06/28 05:29:35;;;;;;;4.05;0.60;;;15.60;99.90;;;;;;5010851;28;20201;-82
2022/06/28 05:32:09;;;;;;;2.25;0.60;;;15.70;99.90;;;;;;5014851;28;20232;-80
2022/06/28 05:34:44;;;;;;;3.80;0.70;;;15.80;99.90;;;;;;5025650;28;20222;-81
2022/06/28 05:37:15;;;;;;;1.30;0.50;;;15.80;99.90;;;;;;5026728;28;20225;-83
2022/06/28 05:39:46;;;;;;;5.60;0.63;;;15.70;99.90;;;;;;5015332;28;20212;-83
2022/06/28 05:42:18;;;;;;;3.65;0.93;;;15.70;99.90;;;;;;5017560;28;20220;-83
2022/06/28 05:44:49;;;;;;;7.95;1.10;;;15.70;99.90;;;;;;5015835;28;20268;-83
2022/06/28 05:47:20;;;;;;;2.88;0.68;;;15.60;99.90;;;;;;5018726;28;20206;-83
2022/06/28 05:49:51;;;;;;;5.63;0.80;;;15.60;99.90;;;;;;5019624;28;20197;-81
2022/06/28 05:52:21;;;;;;;4.15;0.70;;;15.60;99.90;;;;;;5015690;28;20221;-84
2022/06/28 05:54:52;;;;;;;2.80;0.70;;;15.50;99.90;;;;;;5012236;28;20838;-83
2022/06/28 05:57:25;;;;;;;1.85;0.50;;;15.50;99.90;;;;;;5010018;28;20287;-82
2022/06/28 05:59:56;;;;;;;4.35;0.88;;;15.50;99.90;;;;;;5011870;28;21044;-82
2022/06/28 06:02:27;;;;;;;5.70;0.80;;;15.50;99.90;;;;;;5013214;28;20675;-82
2022/06/28 06:04:59;;;;;;;3.55;0.75;;;15.50;99.90;;;;;;5015848;28;20288;-84
2022/06/28 06:07:30;;;;;;;3.53;0.60;;;15.40;99.90;;;;;;5014011;28;20197;-83
2022/06/28 06:10:01;;;;;;;2.83;0.82;;;15.50;99.90;;;;;;5014916;28;20193;-83
2022/06/28 06:12:35;;;;;;;3.88;0.70;;;15.60;99.90;;;;;;5014312;28;20333;-83
2022/06/28 06:15:06;;;;;;;5.53;1.05;;;15.60;99.90;;;;;;5013474;28;20211;-83
2022/06/28 06:17:37;;;;;;;2.25;0.80;;;15.60;99.90;;;;;;5014816;28;20366;-82
2022/06/28 06:20:08;;;;;;;3.33;0.70;;;15.60;99.90;;;;;;5015355;28;20591;-83
2022/06/28 06:22:39;;;;;;;1.45;0.47;;;15.60;99.90;;;;;;5014409;28;20228;-84
2022/06/28 06:25:11;;;;;;;2.85;0.82;;;15.60;99.90;;;;;;5014957;28;20208;-83
2022/06/28 06:27:44;;;;;;;4.00;0.65;;;15.60;99.90;;;;;;5016867;28;20221;-85
2022/06/28 06:30:15;;;;;;;1.10;0.65;;;15.50;99.90;;;;;;5010420;28;20216;-83
2022/06/28 06:32:46;;;;;;;4.30;1.10;;;15.50;99.90;;;;;;5009530;28;20206;-83
2022/06/28 06:35:24;;;;;;;3.30;0.70;;;15.50;99.90;;;;;;5009502;28;20198;-81
2022/06/28 06:38:00;;;;;;;2.72;0.70;;;15.50;99.90;;;;;;5009936;28;20202;-83
2022/06/28 06:40:31;;;;;;;4.70;0.70;;;15.40;99.90;;;;;;5010800;28;20205;-82
2022/06/28 06:43:07;;;;;;;3.40;0.63;;;15.50;99.90;;;;;;5011831;28;20213;-83
2022/06/28 06:45:37;;;;;;;3.05;0.60;;;15.40;99.90;;;;;;5010397;28;20731;-82
2022/06/28 06:48:08;;;;;;;3.90;1.02;;;15.40;99.90;;;;;;5010485;28;20577;-78
2022/06/28 06:50:39;;;;;;;2.40;0.52;;;15.40;99.90;;;;;;5009369;28;20588;-82
2022/06/28 06:53:10;;;;;;;1.23;0.60;;;15.40;99.90;;;;;;5010998;28;20949;-80
2022/06/28 06:55:42;;;;;;;2.70;0.68;;;15.30;99.90;;;;;;5008875;28;20201;-82
2022/06/28 06:58:17;;;;;;;2.92;0.68;;;15.20;99.90;;;;;;5008704;28;20204;-81
2022/06/28 07:00:51;;;;;;;1.05;0.30;;;15.10;99.90;;;;;;5008742;28;20204;-82
2022/06/28 07:03:21;;;;;;;2.63;1.58;;;15.00;99.90;;;;;;5007592;28;20327;-81
2022/06/28 07:05:52;;;;;;;3.67;1.40;;;14.90;99.90;;;;;;5009217;28;20207;-81
2022/06/28 07:08:23;;;;;;;5.70;1.33;;;14.70;99.90;;;;;;5011317;28;20209;-82
2022/06/28 07:10:54;;;;;;;4.45;1.40;;;14.60;99.90;;;;;;5011884;28;20226;-81
2022/06/28 07:13:27;;;;;;;3.28;1.40;;;14.50;99.90;;;;;;5008417;28;20220;-81
2022/06/28 07:15:57;;;;;;;3.33;1.40;;;14.40;99.90;;;;;;5009912;28;20205;-80
2022/06/28 07:18:29;;;;;;;2.17;1.00;;;14.40;99.90;;;;;;5008880;28;20664;-82
2022/06/28 07:21:00;;;;;;;3.15;1.10;;;14.40;99.90;;;;;;5011121;28;20216;-82
2022/06/28 07:23:31;;;;;;;5.05;1.50;;;14.30;99.90;;;;;;5006969;28;20240;-81
2022/06/28 07:26:02;;;;;;;3.10;1.10;;;14.30;99.90;;;;;;5010905;28;20817;-80
2022/06/28 07:28:36;;;;;;;2.70;1.23;;;14.40;99.90;;;;;;5010500;28;20201;-81
2022/06/28 07:31:07;;;;;;;3.78;1.95;;;14.30;99.90;;;;;;5008101;28;20263;-81
2022/06/28 07:33:37;;;;;;;4.13;1.80;;;14.40;99.90;;;;;;5008385;28;20869;-81
2022/06/28 07:36:08;;;;;;;5.07;1.48;;;14.30;99.90;;;;;;5013686;28;20684;-82
2022/06/28 07:38:39;;;;;;;2.75;1.00;;;14.30;99.90;;;;;;5030282;28;20196;-81
2022/06/28 07:41:10;;;;;;;2.70;1.05;;;14.20;99.90;;;;;;5036353;28;20193;-81
2022/06/28 07:43:42;;;;;;;2.75;1.00;;;14.20;99.90;;;;;;5028932;28;20272;-80
2022/06/28 07:46:13;;;;;;;3.45;1.15;;;14.20;99.90;;;;;;5026476;28;20197;-81
2022/06/28 07:48:44;;;;;;;3.42;1.40;;;14.20;99.90;;;;;;5028362;28;20195;-82
2022/06/28 07:54:01;;;;;;;2.83;1.00;;;14.20;99.90;;;;;;5028079;28;20200;-81
2022/06/28 07:56:32;;;;;;;2.33;1.17;;;14.20;99.90;;;;;;5029329;28;20232;-81
2022/06/28 07:59:05;;;;;;;5.53;1.50;;;14.10;99.90;;;;;;5024660;28;20217;-81
2022/06/28 08:01:36;;;;;;;5.35;2.10;;;14.10;99.90;;;;;;5023791;28;20205;-81
2022/06/28 08:04:07;;;;;;;4.78;1.95;;;14.10;99.90;;;;;;5020869;28;20713;-80
2022/06/28 08:06:38;;;;;;;5.53;2.40;;;14.10;99.90;;;;;;5028463;28;20197;-81
2022/06/28 08:09:09;;;;;;;4.38;2.55;;;14.10;99.90;;;;;;5023001;28;20220;-81
2022/06/28 08:11:40;;;;;;;8.35;2.83;;;14.10;99.90;;;;;;5025700;28;20221;-81
2022/06/28 08:14:14;;;;;;;4.68;1.92;;;14.10;99.90;;;;;;5032113;28;20561;-81
2022/06/28 08:16:46;;;;;;;6.55;2.25;;;14.10;99.90;;;;;;5039011;28;20193;-83
2022/06/28 08:19:19;;;;;;;6.78;2.28;;;14.10;99.90;;;;;;5033976;28;20594;-80
2022/06/28 08:21:50;;;;;;;8.95;2.58;;;14.10;99.90;;;;;;5025950;28;20249;-80
2022/06/28 08:24:21;;;;;;;4.75;2.08;;;14.10;99.90;;;;;;5030486;28;20197;-81
2022/06/28 08:26:58;;;;;;;4.22;2.55;;;14.10;99.90;;;;;;5027187;28;20201;-81
2022/06/28 08:29:42;;;;;;;6.50;2.33;;;14.10;99.90;;;;;;5031365;28;20228;-79
2022/06/28 08:32:23;;;;;;;7.13;2.90;;;14.20;99.90;;;;;;5041210;28;20632;-80
2022/06/28 08:34:55;;;;;;;6.35;2.03;;;14.20;99.90;;;;;;5036662;28;20208;-81
2022/06/28 08:37:25;;;;;;;5.68;2.40;;;14.20;99.90;;;;;;5027900;28;20229;-82
2022/06/28 08:39:57;;;;;;;6.20;2.83;;;14.20;99.90;;;;;;5027339;28;20205;-81
2022/06/28 08:42:34;;;;;;;4.85;2.55;;;14.10;99.90;;;;;;5030844;28;20220;-81
2022/06/28 08:45:10;;;;;;;9.15;5.05;;;14.20;99.90;;;;;;5030075;28;20208;-83
2022/06/28 08:47:47;;;;;;;5.05;3.40;;;14.10;99.90;;;;;;5029694;28;20208;-80
2022/06/28 08:50:22;;;;;;;5.55;3.60;;;14.10;99.90;;;;;;5028785;28;20573;-81
2022/06/28 08:52:54;;;;;;;7.28;4.10;;;14.20;99.90;;;;;;5031896;28;20225;-81
2022/06/28 08:55:28;;;;;;;8.13;3.75;;;14.20;99.90;;;;;;5027468;28;20228;-80
2022/06/28 08:57:59;;;;;;;4.85;2.10;;;14.20;99.90;;;;;;5030891;28;20201;-80
2022/06/28 09:00:40;;;;;;;5.60;2.60;;;14.20;99.90;;;;;;5027537;28;20283;-79
2022/06/28 09:03:21;;;;;;;3.78;2.60;;;14.10;99.90;;;;;;5024126;28;20232;-79
2022/06/28 09:05:52;;;;;;;5.00;2.75;;;14.10;99.90;;;;;;5029880;28;20201;-79
2022/06/28 09:08:25;;;;;;;5.65;2.42;;;14.10;99.90;;;;;;5028899;28;20212;-79
2022/06/28 09:10:59;;;;;;;5.68;2.22;;;14.10;99.90;;;;;;5024563;28;20222;-79
2022/06/28 09:13:30;;;;;;;5.78;3.38;;;14.10;99.90;;;;;;5029545;28;20197;-80
2022/06/28 09:16:07;;;;;;;9.18;5.10;;;14.10;99.90;;;;;;5029138;28;20197;-81
2022/06/28 09:18:50;;;;;;;8.57;5.45;;;14.10;99.90;;;;;;5026847;28;20193;-81
2022/06/28 09:21:22;;;;;;;6.85;2.90;;;14.10;99.90;;;;;;5030090;28;20224;-79
2022/06/28 09:23:54;;;;;;;6.05;2.80;;;14.10;99.90;;;;;;5031555;28;20209;-78
2022/06/28 09:26:25;;;;;;;6.10;2.50;;;14.10;99.90;;;;;;5028238;28;20249;-80
2022/06/28 09:28:56;;;;;;;4.68;2.05;;;14.00;99.90;;;;;;5031438;28;20205;-80
2022/06/28 09:31:30;;;;;;;4.07;2.55;;;14.00;99.90;;;;;;5032985;28;20494;-81
2022/06/28 09:34:08;;;;;;;3.78;1.92;;;14.00;99.90;;;;;;5040528;28;20253;-82
2022/06/28 09:36:41;;;;;;;3.35;2.25;;;14.00;99.90;;;;;;5032801;28;20232;-81
2022/06/28 09:39:16;;;;;;;3.42;1.80;;;14.00;99.90;;;;;;5034445;28;20254;-84
2022/06/28 09:41:51;;;;;;;4.47;1.90;;;14.00;99.90;;;;;;5023588;28;20200;-78
2022/06/28 09:44:27;;;;;;;3.40;1.80;;;14.00;99.90;;;;;;5025277;28;20197;-77
2022/06/28 09:47:00;;;;;;;5.68;2.45;;;13.90;99.90;;;;;;5034499;28;20217;-78
2022/06/28 09:49:32;;;;;;;5.20;2.50;;;13.90;99.90;;;;;;5029060;28;20193;-78
2022/06/28 09:52:04;;;;;;;2.80;1.77;;;13.90;99.90;;;;;;5023251;28;20220;-78
2022/06/28 09:54:39;;;;;;;4.03;2.00;;;13.90;99.90;;;;;;5030779;28;20645;-78
2022/06/28 09:57:14;;;;;;;5.40;2.22;;;13.90;99.90;;;;;;5025528;28;20201;-78
2022/06/28 09:59:45;;;;;;;4.72;2.03;;;13.80;99.90;;;;;;5026096;28;20217;-80
2022/06/28 10:02:21;;;;;;;5.43;2.28;;;13.80;99.90;;;;;;5030410;28;20235;-80
2022/06/28 10:04:53;;;;;;;3.58;2.10;;;13.80;99.90;;;;;;5029516;28;20609;-82
2022/06/28 10:07:24;;;;;;;5.55;2.63;;;13.90;99.90;;;;;;5030733;28;20669;-81
2022/06/28 10:09:55;;;;;;;6.43;2.60;;;13.80;99.90;;;;;;5025643;28;20288;-81
2022/06/28 10:15:12;;;;;;;6.63;3.40;;;13.80;99.90;;;;;;5027967;28;20215;-81
2022/06/28 10:17:58;;;;;;;4.78;2.90;;;13.80;99.90;;;;;;5027942;28;20205;-81
2022/06/28 10:20:30;;;;;;;6.72;3.20;;;13.80;99.90;;;;;;5014670;28;20278;-80
2022/06/28 10:23:25;;;;;;;6.03;3.42;;;13.80;99.90;;;;;;5028776;28;20209;-81
2022/06/28 10:26:07;;;;;;;5.60;2.85;;;13.80;99.90;;;;;;5030626;28;20228;-81
2022/06/28 10:28:40;;;;;;;4.57;2.80;;;13.80;99.90;;;;;;5029577;28;20274;-80
2022/06/28 10:31:36;;;;;;;4.30;2.72;;;13.80;99.90;;;;;;5036209;28;20208;-80
2022/06/28 10:34:11;;;;;;;6.20;2.92;;;13.80;99.90;;;;;;5035529;28;20197;-81
2022/06/28 10:36:51;;;;;;;5.72;2.67;;;13.90;99.90;;;;;;5023637;28;20341;-81
2022/06/28 10:39:29;;;;;;;4.88;2.60;;;13.90;99.90;;;;;;5024996;28;20201;-80
2022/06/28 10:42:13;;;;;;;4.05;2.20;;;13.90;99.90;;;;;;5027235;28;20189;-81
2022/06/28 10:44:49;;;;;;;4.15;1.98;;;13.90;99.90;;;;;;5025850;28;20200;-80
2022/06/28 10:47:21;;;;;;;4.10;2.17;;;14.00;99.90;;;;;;5038244;28;20231;-79
2022/06/28 10:50:00;;;;;;;4.78;1.70;;;14.00;99.90;;;;;;5032895;28;20217;-81
2022/06/28 10:52:34;;;;;;;3.10;1.75;;;14.00;99.90;;;;;;5026935;28;20229;-80
2022/06/28 10:55:31;;;;;;;4.97;2.45;;;13.90;99.90;;;;;;5028683;28;20846;-80
2022/06/28 10:58:13;;;;;;;6.20;2.30;;;13.90;99.90;;;;;;5003359;28;20667;-81
2022/06/28 11:00:57;;;;;;;4.78;2.60;;;13.90;99.90;;;;;;5023514;28;20214;-81
2022/06/28 11:03:28;;;;;;;5.53;2.67;;;13.90;99.90;;;;;;5025129;28;20501;-81
2022/06/28 11:06:01;;;;;;;4.53;2.47;;;13.90;99.90;;;;;;5027223;28;20210;-81
2022/06/28 11:08:54;;;;;;;5.45;2.80;;;13.90;99.90;;;;;;5028619;28;20567;-80
2022/06/28 11:11:25;;;;;;;4.43;2.60;;;13.90;99.90;;;;;;5026711;28;20574;-82
2022/06/28 11:14:27;;;;;;;5.30;2.38;;;13.90;99.90;;;;;;5030081;28;20585;-81
2022/06/28 11:16:59;;;;;;;5.20;2.60;;;13.90;99.90;;;;;;5040496;28;20462;-81
2022/06/28 11:19:32;;;;;;;4.95;3.33;;;13.90;99.90;;;;;;5030282;28;20221;-82
2022/06/28 11:22:07;;;;;;;3.78;2.28;;;14.00;99.90;;;;;;5031582;28;20197;-81
2022/06/28 11:24:46;;;;;;;5.25;2.40;;;14.00;99.90;;;;;;5041985;28;20216;-81
2022/06/28 11:27:23;;;;;;;6.13;2.47;;;13.90;99.90;;;;;;5032538;28;20221;-80
2022/06/28 11:29:56;;;;;;;7.50;2.30;;;13.90;99.90;;;;;;5028012;28;20296;-78
2022/06/28 11:32:29;;;;;;;7.40;2.50;;;13.80;99.90;;;;;;5033765;28;20205;-80
2022/06/28 11:35:03;;;;;;;5.65;2.20;;;13.80;99.90;;;;;;5037263;28;20204;-80
2022/06/28 11:37:48;;;;;;;3.35;2.10;;;13.80;99.90;;;;;;5036442;28;20273;-81
2022/06/28 11:40:19;;;;;;;4.00;2.00;;;13.80;99.90;;;;;;5025459;28;20285;-81
2022/06/28 11:43:01;;;;;;;3.03;1.73;;;13.70;99.90;;;;;;5028074;28;20216;-82
2022/06/28 11:45:33;;;;;;;3.83;2.20;;;13.80;99.90;;;;;;5018633;28;20683;-79
2022/06/28 11:48:07;;;;;;;5.22;2.15;;;13.80;99.90;;;;;;5027469;28;20212;-79
2022/06/28 11:50:44;;;;;;;4.43;2.10;;;13.80;99.90;;;;;;5026512;28;20197;-79
2022/06/28 11:53:17;;;;;;;3.72;2.00;;;13.80;99.90;;;;;;5018151;28;20221;-79
2022/06/28 11:55:50;;;;;;;4.50;2.30;;;13.80;99.90;;;;;;5030854;28;20302;-79
2022/06/28 11:58:21;;;;;;;3.03;2.00;;;13.80;99.90;;;;;;5027118;28;20202;-79
2022/06/28 12:01:07;;;;;;;4.90;2.42;;;13.80;99.90;;;;;;5027367;28;20201;-78
2022/06/28 12:03:56;;;;;;;4.50;2.10;;;13.70;99.90;;;;;;5020870;28;20205;-79
2022/06/28 12:06:29;;;;;;;3.80;2.13;;;13.70;99.90;;;;;;5024971;28;20698;-79
2022/06/28 12:09:03;;;;;;;2.88;2.08;;;13.70;99.90;;;;;;5035074;28;20704;-79
2022/06/28 12:11:39;;;;;;;4.18;2.13;;;13.80;99.90;;;;;;5024725;28;20193;-86
2022/06/28 12:14:13;;;;;;;2.95;2.10;;;13.80;99.90;;;;;;5031941;28;20688;-81
2022/06/28 12:16:46;;;;;;;4.40;2.25;;;13.70;99.90;;;;;;5029803;28;20220;-81
2022/06/28 12:19:18;;;;;;;5.65;2.15;;;13.70;99.90;;;;;;5032506;28;20241;-82
2022/06/28 12:22:02;;;;;;;5.78;2.25;;;13.70;99.90;;;;;;5029212;28;20205;-79
2022/06/28 12:24:46;;;;;;;3.88;1.90;;;13.70;99.90;;;;;;5020190;28;20719;-79
2022/06/28 12:27:17;;;;;;;4.25;1.98;;;13.60;99.90;;;;;;5017330;28;20291;-79
2022/06/28 12:29:48;;;;;;;4.10;2.20;;;13.70;99.90;;;;;;5025309;28;20221;-79
2022/06/28 12:32:19;;;;;;;5.20;2.00;;;13.70;99.90;;;;;;5031906;28;20661;-79
2022/06/28 12:34:58;;;;;;;3.17;2.00;;;13.70;99.90;;;;;;5029199;28;20213;-80
2022/06/28 12:37:29;;;;;;;3.35;1.83;;;13.70;99.90;;;;;;5028854;28;20225;-80
2022/06/28 12:40:02;;;;;;;4.50;1.95;;;13.60;99.90;;;;;;5031298;28;20232;-80
2022/06/28 12:42:34;;;;;;;2.58;1.40;;;13.60;99.90;;;;;;5027730;28;20253;-81
2022/06/28 12:45:05;;;;;;;2.45;1.50;;;13.60;99.90;;;;;;5023428;28;20213;-80
2022/06/28 12:47:38;;;;;;;4.10;2.00;;;13.60;99.90;;;;;;5037165;28;20197;-80
2022/06/28 12:50:13;;;;;;;4.25;1.80;;;13.60;99.90;;;;;;5022592;28;20217;-79
2022/06/28 12:52:45;;;;;;;5.65;1.60;;;13.50;99.90;;;;;;5028118;28;20221;-80
2022/06/28 12:55:17;;;;;;;2.25;1.55;;;13.60;99.90;;;;;;5027704;28;20205;-82
2022/06/28 12:57:48;;;;;;;3.20;1.50;;;13.60;99.90;;;;;;5044002;28;20660;-81
2022/06/28 13:00:19;;;;;;;4.70;1.60;;;13.50;99.90;;;;;;5028013;28;20280;-81
2022/06/28 13:02:50;;;;;;;2.47;1.42;;;13.50;99.90;;;;;;5028939;28;20197;-83
2022/06/28 13:05:22;;;;;;;3.83;1.67;;;13.50;99.90;;;;;;5026589;28;20227;-81
2022/06/28 13:07:55;;;;;;;4.10;1.40;;;13.50;99.90;;;;;;5028644;28;20252;-82
2022/06/28 13:10:28;;;;;;;3.92;1.45;;;13.50;99.90;;;;;;5030119;28;20280;-81
2022/06/28 13:12:59;;;;;;;3.03;1.42;;;13.50;99.90;;;;;;5029069;28;20714;-80
2022/06/28 13:15:30;;;;;;;5.85;1.42;;;13.50;99.90;;;;;;5028391;28;20679;-81
2022/06/28 13:18:01;;;;;;;2.58;1.30;;;13.50;99.90;;;;;;5041391;28;20197;-80
2022/06/28 13:20:31;;;;;;;2.38;1.30;;;13.50;99.90;;;;;;5044934;28;20221;-79
2022/06/28 13:23:03;;;;;;;2.83;1.40;;;13.60;99.90;;;;;;5025404;28;20231;-80
2022/06/28 13:25:36;;;;;;;3.60;1.35;;;13.50;99.90;;;;;;5029407;28;20213;-81
2022/06/28 13:28:08;;;;;;;4.10;1.70;;;13.50;99.90;;;;;;5030190;28;20233;-80
2022/06/28 13:30:38;;;;;;;3.05;1.27;;;13.50;99.90;;;;;;5028236;28;20283;-80
2022/06/28 13:33:09;;;;;;;3.47;1.50;;;13.50;99.90;;;;;;5026341;28;20568;-80